Página principal
METAR-TAF:

METAR-TAF

Aeroportos :

Rabat, Marrocos

latitude: 34-03N, longitude: 006-46W, altura: 84 m

Observação actual do tempo

O boletim foi feito há 51 minutos, às 11:30 UTC
Vento 8 kt de nor-noroeste
Temperatura 30°C
Humidade 46%
Pressão 1012 hPa
Visibilidade 10 km ou mais

METAR: GMME 231130Z 33008KT 9999 NSC 30/17 Q1012 NOSIG

Hora: 13:21 (12:21 UTC)

Previsão

O boletim foi feito há 1 hora e 21 minutos, às 11:00 UTC
Previsão válida de 23 às 06 UTC a 24 às 12 UTC
Vento 8 kt de noroeste
Visibilidade: 8000 m
Temporariamente
de 24 às 00 UTC a 24 às 06 UTC
Vento 2 kt com direcção variável
Visibilidade: 4000 m
Nuvens dispersasa uma altura de 800 ft
neblina

TAF: GMME 231100Z 2306/2412 320008KT 8000 NSC TEMPO 2400/2406 VRB02KT 4000 BR SCT008

Observações e previsões do tempo de mais de 4000 aeroportos (mensagens METAR e TAF).

As estações disponíveis são os pontos amarelos e vermelhos sobre o mapa.

Mova o rato sobre o mapa para ver o nome da estação.

Depois clique no ponto para visualizar as observações e previsões meteorológicas.

Para alterar o mapa : clique nos botões verdes com uma cruz preta para aumentar o zoom; no botão verde com uma pitada de zoom; ou nas setas verdes para mapas adjacentes.


METAR-TAF: